Terminal Aerodrome Forecast
Issued by NWS Sioux Falls, SD

Home | Current Version | Previous Version | Graphics & Text | Print | Product List | Glossary Off
Versions: 1 2 3 4 5 6 7 8 9 10 11 12 13 14 15 16 17 18 19

674
FTUS43 KFSD 271937 AAB
TAFFSD
TAF AMD
KFSD 271937Z 2720/2818 32005KT P6SM BKN040
     FM280000 36004KT P6SM SCT040 BKN200
     FM280800 VRB06KT P6SM OVC035
      TEMPO 2808/2812 3SM TSRA BKN022CB
     FM281200 VRB04KT 4SM RA OVC015
     FM281700 VRB04KT P6SM BKN025=

USA.gov is the U.S. government's official web portal to all federal, state and local government web resources and services.